Terminal Aerodrome Forecast
Issued by NWS

Home | Current Version | Previous Version | Text Only | Print | Product List | Glossary On
Versions: 1 2 3 4 5 6 7 8 9 10 11 12 13 14 15 16
000
FTUS44 KEWX 281700
TAFSSF
TAF
KSSF 281733Z 2818/2918 20010KT P6SM FEW025
     FM282000 19010G16KT P6SM FEW035
     FM282200 17007KT P6SM SKC
     FM290800 19007KT P6SM BKN015
     FM291400 20011KT P6SM BKN025
     FM291600 19012KT P6SM BKN050=

USA.gov is the U.S. government's official web portal to all federal, state and local government web resources and services.